Accueil
METAR-TAF:

METAR-TAF

Aéroports :

Aérodrome de Pantelleria

Pantelleria, Italie

latitude: 36-49N, longitude: 011-58E, altitude: 191 m

Observation

Le bulletin a été fait il y a 40 minutes, à 07:50 UTC
Vent 14 kt de ouest
Température 12°C
Humidité 76%
Pression 1025 hPa
Visibilité 10 km ou plus
Nuages fragmentés à une hauteur de 2000 ft

METAR: LICG 190750Z 28014KT 9999 BKN020 12/08 Q1025

Heure: 09:30 (08:30 UTC)

Prévision

Le bulletin a été fait il y a 3 heures et 30 minutes, à 05:00 UTC
Prévision valable du 19 à 06 UTC au 19 à 15 UTC
Vent 15 kt de nord/nord-ouest
Visibilité 10 km ou plus
Nuages fragmentés à une hauteur de 2000 ft
Evoluant progressivement
du 19 à 08 UTC au 19 à 10 UTC
Vent 18 kt de nord/nord-ouest avec des rafales jusqu'à 30 kt

TAF: LICG 190500Z 1906/1915 34015KT 9999 BKN020 BECMG 1908/1910 34018G30KT

Observations et prévisions météorologiques de plus de 4000 aéroports (messages METAR et TAF).

Les stations disponibles sont représentées par des disques jaunes et rouges sur la carte.

Passer la souris dessus pour voir le nom de la station.

Cliquer dessus pour voir les observations et prévisions météorologiques.

Pour changer de carte: cliquez sur les boutons verts avec une croix noire pour zoomer, sur le bouton vert avec un tiret pour effectuer un zoom arrière, ou sur les flèches vertes pour les cartes adjacentes.


METAR-TAF: